Time;durP1;ratioP1;P1;durP2;ratioP2;P2;SDS_P1;SDS_P2;PMS_P1;PMS_P2;Temp;Humidity;BMP_temperature;BMP_pressure;BME280_temperature;BME280_humidity;BME280_pressure;Samples;Min_cycle;Max_cycle;Signal;HPM_P1;HPM_P2
2023/01/18 00:00:11;;;;;;;;;;;2.00;99.90;;;;;;7339273;19;109524;-90
2023/01/18 00:02:38;;;;;;;;;;;2.00;99.90;;;;;;7335282;19;110610;-90
2023/01/18 00:05:05;;;;;;;;;;;2.00;99.90;;;;;;7337811;19;109032;-91
2023/01/18 00:07:32;;;;;;;;;;;2.00;99.90;;;;;;7334621;19;112219;-91
2023/01/18 00:09:59;;;;;;;;;;;1.90;99.90;;;;;;7336309;19;109393;-91
2023/01/18 00:12:25;;;;;;;;;;;1.90;99.90;;;;;;7336270;19;109160;-91
2023/01/18 00:14:52;;;;;;;;;;;1.90;99.90;;;;;;7338818;19;108597;-90
2023/01/18 00:17:19;;;;;;;;;;;1.90;99.90;;;;;;7342233;19;110752;-90
2023/01/18 00:19:46;;;;;;;;;;;1.90;99.90;;;;;;7338332;19;111715;-91
2023/01/18 00:22:13;;;;;;;;;;;1.80;99.90;;;;;;7337089;19;111226;-91
2023/01/18 00:24:40;;;;;;;;;;;1.80;99.90;;;;;;7336474;19;108469;-91
2023/01/18 00:27:08;;;;;;;;;;;1.80;99.90;;;;;;7336163;19;108718;-90
2023/01/18 00:29:35;;;;;;;;;;;1.70;99.90;;;;;;7336153;19;109949;-90
2023/01/18 00:32:03;;;;;;;;;;;1.70;99.90;;;;;;7336983;19;109185;-90
2023/01/18 00:34:30;;;;;;;;;;;1.70;99.90;;;;;;7337510;19;111786;-90
2023/01/18 00:36:57;;;;;;;;;;;1.70;99.90;;;;;;7334701;19;110600;-90
2023/01/18 00:39:24;;;;;;;;;;;1.70;99.90;;;;;;7345198;19;108776;-91
2023/01/18 00:44:36;;;;;;;;;;;1.60;99.90;;;;;;7338874;19;109206;-90
2023/01/18 00:47:03;;;;;;;;;;;1.60;99.90;;;;;;7337708;19;109024;-90
2023/01/18 00:49:32;;;;;;;;;;;1.60;99.90;;;;;;7337105;19;109312;-90
2023/01/18 00:51:59;;;;;;;;;;;1.60;99.90;;;;;;7334729;19;109784;-91
2023/01/18 00:54:26;;;;;;;;;;;1.50;99.90;;;;;;7335863;19;111740;-91
2023/01/18 00:56:53;;;;;;;;;;;1.50;99.90;;;;;;7336780;19;110720;-90
2023/01/18 00:59:20;;;;;;;;;;;1.50;99.90;;;;;;7336523;19;109178;-90
2023/01/18 01:01:47;;;;;;;;;;;1.40;99.90;;;;;;7341289;19;109541;-90
2023/01/18 01:07:00;;;;;;;;;;;1.40;99.90;;;;;;7336604;19;108494;-90
2023/01/18 01:09:28;;;;;;;;;;;1.40;99.90;;;;;;7332979;19;110285;-90
2023/01/18 01:26:07;;;;;;;;;;;1.20;99.90;;;;;;7335831;19;108376;-90
2023/01/18 01:28:34;;;;;;;;;;;1.20;99.90;;;;;;7337001;19;109497;-89
2023/01/18 01:31:02;;;;;;;;;;;1.10;99.90;;;;;;7336887;19;109300;-90
2023/01/18 01:33:30;;;;;;;;;;;1.20;99.90;;;;;;7334735;19;108571;-89
2023/01/18 01:35:58;;;;;;;;;;;1.10;99.90;;;;;;7336535;19;109516;-90
2023/01/18 01:38:26;;;;;;;;;;;1.10;99.90;;;;;;7334012;19;110576;-90
2023/01/18 01:41:01;;;;;;;;;;;1.10;99.90;;;;;;7337160;19;109006;-90
2023/01/18 01:43:40;;;;;;;;;;;1.00;99.90;;;;;;7337408;19;110059;-90
2023/01/18 01:46:27;;;;;;;;;;;1.00;99.90;;;;;;7341511;19;110193;-89
2023/01/18 01:49:08;;;;;;;;;;;1.00;99.90;;;;;;7336249;19;109272;-90
2023/01/18 01:51:36;;;;;;;;;;;1.00;99.90;;;;;;7335093;19;110904;-90
2023/01/18 01:54:05;;;;;;;;;;;0.90;99.90;;;;;;7336842;19;109420;-90
2023/01/18 01:56:32;;;;;;;;;;;0.90;99.90;;;;;;7334522;19;109415;-90
2023/01/18 01:59:00;;;;;;;;;;;0.90;99.90;;;;;;7337341;19;112720;-90
2023/01/18 02:01:27;;;;;;;;;;;0.90;99.90;;;;;;7335040;19;108397;-89
2023/01/18 02:03:56;;;;;;;;;;;0.80;99.90;;;;;;7335991;19;110198;-90
2023/01/18 02:06:30;;;;;;;;;;;0.80;99.90;;;;;;7333459;19;110432;-89
2023/01/18 02:08:58;;;;;;;;;;;0.80;99.90;;;;;;7344684;19;108120;-90
2023/01/18 02:11:25;;;;;;;;;;;0.70;99.90;;;;;;7333896;19;109540;-89
2023/01/18 02:13:54;;;;;;;;;;;0.70;99.90;;;;;;7334938;19;109084;-90
2023/01/18 02:16:39;;;;;;;;;;;0.70;99.90;;;;;;7333735;19;108546;-90
2023/01/18 02:19:09;;;;;;;;;;;0.70;99.90;;;;;;7334652;19;113133;-89
2023/01/18 02:21:39;;;;;;;;;;;0.60;99.90;;;;;;7336094;19;108316;-90
2023/01/18 02:24:15;;;;;;;;;;;0.60;99.90;;;;;;7328796;19;109157;-90
2023/01/18 02:27:03;;;;;;;;;;;0.60;99.90;;;;;;7333140;19;109209;-90
2023/01/18 02:29:30;;;;;;;;;;;0.60;99.90;;;;;;7332043;19;109300;-89
2023/01/18 02:31:57;;;;;;;;;;;0.50;99.90;;;;;;7338267;19;109318;-89
2023/01/18 02:34:23;;;;;;;;;;;0.50;99.90;;;;;;7329338;19;108454;-89
2023/01/18 02:36:59;;;;;;;;;;;0.50;99.90;;;;;;7333553;19;109736;-89
2023/01/18 02:39:37;;;;;;;;;;;0.50;99.90;;;;;;7330714;19;112007;-89
2023/01/18 02:47:52;;;;;;;;;;;0.40;99.90;;;;;;7332579;19;110032;-89
2023/01/18 02:50:24;;;;;;;;;;;0.30;99.90;;;;;;7333388;19;110048;-90
2023/01/18 02:52:52;;;;;;;;;;;0.30;99.90;;;;;;7334257;19;109042;-89
2023/01/18 02:55:39;;;;;;;;;;;0.30;99.90;;;;;;7337254;19;109351;-89
2023/01/18 02:58:32;;;;;;;;;;;0.30;99.90;;;;;;7334021;19;110652;-88
2023/01/18 03:01:12;;;;;;;;;;;0.30;99.90;;;;;;7331526;19;111004;-89
2023/01/18 03:03:41;;;;;;;;;;;0.20;99.90;;;;;;7333092;19;108511;-89
2023/01/18 03:06:08;;;;;;;;;;;0.20;99.90;;;;;;7332648;19;111313;-89
2023/01/18 03:08:35;;;;;;;;;;;0.10;99.90;;;;;;7328431;19;109855;-89
2023/01/18 03:11:04;;;;;;;;;;;0.10;99.90;;;;;;7332889;19;108324;-89
2023/01/18 03:13:47;;;;;;;;;;;0.10;99.90;;;;;;7330992;19;110866;-89
2023/01/18 03:16:24;;;;;;;;;;;0.10;99.90;;;;;;7333839;19;113990;-89
2023/01/18 03:18:59;;;;;;;;;;;0.10;99.90;;;;;;7340384;19;109203;-90
2023/01/18 03:21:33;;;;;;;;;;;0.10;99.90;;;;;;7330964;19;110488;-89
2023/01/18 03:24:03;;;;;;;;;;;0.10;99.90;;;;;;7332716;19;108258;-90
2023/01/18 03:26:32;;;;;;;;;;;0.00;99.90;;;;;;7330224;19;110467;-90
2023/01/18 03:34:50;;;;;;;;;;;0.00;99.90;;;;;;7338364;19;108569;-89
2023/01/18 03:37:38;;;;;;;;;;;-0.10;99.90;;;;;;7337242;19;109151;-89
2023/01/18 03:40:05;;;;;;;;;;;-0.10;99.90;;;;;;7343101;19;108416;-90
2023/01/18 03:42:36;;;;;;;;;;;-0.10;99.90;;;;;;7336531;19;112392;-89
2023/01/18 03:45:07;;;;;;;;;;;-0.10;99.90;;;;;;7336547;19;108323;-89
2023/01/18 03:47:34;;;;;;;;;;;-0.10;99.90;;;;;;7338453;19;111634;-89
2023/01/18 03:50:02;;;;;;;;;;;-0.10;99.90;;;;;;7337897;19;109324;-89
2023/01/18 03:52:36;;;;;;;;;;;-0.10;99.90;;;;;;7338032;19;109367;-89
2023/01/18 03:55:06;;;;;;;;;;;-0.20;99.90;;;;;;7337519;19;108479;-89
2023/01/18 03:57:39;;;;;;;;;;;-0.20;99.90;;;;;;7336624;19;109157;-89
2023/01/18 04:00:07;;;;;;;;;;;-0.20;99.90;;;;;;7338850;19;108434;-89
2023/01/18 04:02:35;;;;;;;;;;;-0.20;99.90;;;;;;7342011;19;111127;-89
2023/01/18 04:05:03;;;;;;;;;;;-0.30;99.90;;;;;;7337633;19;108650;-89
2023/01/18 04:07:31;;;;;;;;;;;-0.30;99.90;;;;;;7337579;19;109437;-89
2023/01/18 04:09:58;;;;;;;;;;;-0.30;99.90;;;;;;7336517;19;110697;-89
2023/01/18 04:12:25;;;;;;;;;;;-0.30;99.90;;;;;;7336319;19;108388;-89
2023/01/18 04:14:52;;;;;;;;;;;-0.30;99.90;;;;;;7337699;19;110984;-89
2023/01/18 04:17:19;;;;;;;;;;;-0.40;99.90;;;;;;7335095;19;110597;-89
2023/01/18 04:19:47;;;;;;;;;;;-0.50;99.90;;;;;;7336145;19;108803;-89
2023/01/18 04:22:13;;;;;;;;;;;-0.50;99.90;;;;;;7338644;19;111065;-89
2023/01/18 04:24:40;;;;;;;;;;;-0.50;99.90;;;;;;7339270;19;111144;-89
2023/01/18 04:27:07;;;;;;;;;;;-0.50;99.90;;;;;;7337673;19;109212;-89
2023/01/18 04:29:35;;;;;;;;;;;-0.50;99.90;;;;;;7336412;19;110279;-89
2023/01/18 04:32:02;;;;;;;;;;;-0.50;99.90;;;;;;7336694;19;108800;-89
2023/01/18 04:34:29;;;;;;;;;;;-0.50;99.90;;;;;;7333452;19;111145;-89
2023/01/18 04:36:56;;;;;;;;;;;-0.50;99.90;;;;;;7337495;19;110781;-89
2023/01/18 04:39:23;;;;;;;;;;;-0.50;99.90;;;;;;7335953;19;108538;-89
2023/01/18 04:41:50;;;;;;;;;;;-0.50;99.90;;;;;;7339647;19;109555;-89
2023/01/18 04:44:17;;;;;;;;;;;-0.60;99.90;;;;;;7333790;19;112307;-89
2023/01/18 04:46:46;;;;;;;;;;;-0.50;99.90;;;;;;7342281;19;108915;-89
2023/01/18 04:49:16;;;;;;;;;;;-0.60;99.90;;;;;;7333480;19;110306;-89
2023/01/18 04:51:47;;;;;;;;;;;-0.50;99.90;;;;;;7335855;19;119714;-89
2023/01/18 04:54:15;;;;;;;;;;;-0.50;99.90;;;;;;7333268;19;109668;-89
2023/01/18 04:56:42;;;;;;;;;;;-0.50;99.90;;;;;;7337988;19;110292;-89
2023/01/18 04:59:14;;;;;;;;;;;-0.50;99.90;;;;;;7334028;19;108685;-89
2023/01/18 05:01:41;;;;;;;;;;;-0.60;99.90;;;;;;7333081;19;108972;-89
2023/01/18 05:04:08;;;;;;;;;;;-0.60;99.90;;;;;;7333492;19;112615;-89
2023/01/18 05:06:35;;;;;;;;;;;-0.60;99.90;;;;;;7334438;19;109166;-89
2023/01/18 05:09:02;;;;;;;;;;;-0.60;99.90;;;;;;7341121;19;109458;-89
2023/01/18 05:11:29;;;;;;;;;;;-0.60;99.90;;;;;;7335101;19;108843;-89
2023/01/18 05:13:56;;;;;;;;;;;-0.70;99.90;;;;;;7335410;19;109225;-89
2023/01/18 05:16:23;;;;;;;;;;;-0.70;99.90;;;;;;7333782;19;110809;-89
2023/01/18 05:18:50;;;;;;;;;;;-0.70;99.90;;;;;;7334560;19;108598;-89
2023/01/18 05:21:17;;;;;;;;;;;-0.70;99.90;;;;;;7332057;19;111331;-89
2023/01/18 05:23:44;;;;;;;;;;;-0.70;99.90;;;;;;7333797;19;110370;-89
2023/01/18 05:26:18;;;;;;;;;;;-0.70;99.90;;;;;;7335744;19;109097;-89
2023/01/18 05:28:45;;;;;;;;;;;-0.70;99.90;;;;;;7336329;19;109582;-89
2023/01/18 05:31:13;;;;;;;;;;;-0.70;99.90;;;;;;7338449;19;110360;-89
2023/01/18 05:33:40;;;;;;;;;;;-0.70;99.90;;;;;;7334422;19;108623;-88
2023/01/18 05:36:07;;;;;;;;;;;-0.70;99.90;;;;;;7331458;19;113346;-89
2023/01/18 05:38:34;;;;;;;;;;;-0.70;99.90;;;;;;7334818;19;109316;-88
2023/01/18 05:41:01;;;;;;;;;;;-0.70;99.90;;;;;;7333275;19;113709;-89
2023/01/18 05:43:29;;;;;;;;;;;-0.70;99.90;;;;;;7335421;19;112598;-88
2023/01/18 05:45:56;;;;;;;;;;;-0.70;99.90;;;;;;7329387;19;109488;-89
2023/01/18 05:48:23;;;;;;;;;;;-0.70;99.90;;;;;;7333925;19;109593;-89
2023/01/18 05:50:50;;;;;;;;;;;-0.70;99.90;;;;;;7339001;19;110452;-89
2023/01/18 05:53:21;;;;;;;;;;;-0.70;99.90;;;;;;7331093;19;108394;-89
2023/01/18 05:55:52;;;;;;;;;;;-0.70;99.90;;;;;;7332899;19;110005;-88
2023/01/18 05:58:19;;;;;;;;;;;-0.70;99.90;;;;;;7334957;19;108383;-89
2023/01/18 06:00:46;;;;;;;;;;;-0.70;99.90;;;;;;7333768;19;109785;-89
2023/01/18 06:03:13;;;;;;;;;;;-0.70;99.90;;;;;;7331140;19;110499;-89
2023/01/18 06:05:40;;;;;;;;;;;-0.80;99.90;;;;;;7329342;19;109590;-89
2023/01/18 06:08:07;;;;;;;;;;;-0.80;99.90;;;;;;7331994;19;109724;-89
2023/01/18 06:10:34;;;;;;;;;;;-0.70;99.90;;;;;;7333620;19;110273;-88
2023/01/18 06:13:01;;;;;;;;;;;-0.80;99.90;;;;;;7340301;19;109556;-87
2023/01/18 06:15:28;;;;;;;;;;;-0.80;99.90;;;;;;7333115;19;110150;-89
2023/01/18 06:17:55;;;;;;;;;;;-0.80;99.90;;;;;;7336337;19;108882;-88
2023/01/18 06:20:22;;;;;;;;;;;-0.80;99.90;;;;;;7334020;19;108408;-93
2023/01/18 06:22:49;;;;;;;;;;;-0.80;99.90;;;;;;7333558;19;110919;-92
2023/01/18 06:25:16;;;;;;;;;;;-0.80;99.90;;;;;;7342192;19;108529;-93
2023/01/18 06:27:43;;;;;;;;;;;-0.80;99.90;;;;;;7339492;19;109558;-93
2023/01/18 06:30:10;;;;;;;;;;;-0.80;99.90;;;;;;7338406;19;109244;-93
2023/01/18 06:32:37;;;;;;;;;;;-0.80;99.90;;;;;;7338752;19;108314;-93
2023/01/18 06:35:04;;;;;;;;;;;-0.80;99.90;;;;;;7342673;19;109045;-92
2023/01/18 06:37:31;;;;;;;;;;;-0.90;99.90;;;;;;7318311;19;108698;-93
2023/01/18 06:39:58;;;;;;;;;;;-0.80;99.90;;;;;;7317864;19;111171;-89
2023/01/18 06:42:28;;;;;;;;;;;-0.80;99.90;;;;;;7320842;19;109537;-88
2023/01/18 06:44:55;;;;;;;;;;;-0.90;99.90;;;;;;7333060;19;108770;-88
2023/01/18 06:47:22;;;;;;;;;;;-0.80;99.90;;;;;;7333064;19;109851;-88
2023/01/18 06:49:49;;;;;;;;;;;-0.80;99.90;;;;;;7332641;19;110320;-87
2023/01/18 06:52:16;;;;;;;;;;;-0.80;99.90;;;;;;7334492;19;108899;-87
2023/01/18 06:54:46;;;;;;;;;;;-0.90;99.90;;;;;;7336087;19;109724;-88
2023/01/18 06:57:13;;;;;;;;;;;-0.90;99.90;;;;;;7336610;19;110813;-88
2023/01/18 06:59:40;;;;;;;;;;;-0.90;99.90;;;;;;7329216;19;111612;-88
2023/01/18 07:02:08;;;;;;;;;;;-0.90;99.90;;;;;;7332757;19;110863;-88
2023/01/18 07:04:41;;;;;;;;;;;-0.90;99.90;;;;;;7331013;19;109835;-88
2023/01/18 07:07:08;;;;;;;;;;;-0.90;99.90;;;;;;7336930;19;109232;-88
2023/01/18 07:09:35;;;;;;;;;;;-0.90;99.90;;;;;;7337656;19;109813;-87
2023/01/18 07:12:03;;;;;;;;;;;-0.90;99.90;;;;;;7339540;19;108644;-88
2023/01/18 07:14:30;;;;;;;;;;;-0.90;99.90;;;;;;7337519;19;110634;-88
2023/01/18 07:16:57;;;;;;;;;;;-0.90;99.90;;;;;;7335177;19;112100;-88
2023/01/18 07:19:24;;;;;;;;;;;-0.90;99.90;;;;;;7341069;19;108644;-88
2023/01/18 07:21:52;;;;;;;;;;;-0.90;99.90;;;;;;7339560;19;110793;-87
2023/01/18 07:24:19;;;;;;;;;;;-0.90;99.90;;;;;;7337502;19;108404;-88
2023/01/18 07:26:46;;;;;;;;;;;-0.90;99.90;;;;;;7337485;19;108854;-88
2023/01/18 07:29:13;;;;;;;;;;;-0.90;99.90;;;;;;7336865;19;109040;-88
2023/01/18 07:31:40;;;;;;;;;;;-0.90;99.90;;;;;;7335528;19;109091;-88
2023/01/18 07:34:10;;;;;;;;;;;-0.90;99.90;;;;;;7339646;19;109460;-88
2023/01/18 07:36:38;;;;;;;;;;;-1.00;99.90;;;;;;7335766;19;111587;-87
2023/01/18 07:39:05;;;;;;;;;;;-1.00;99.90;;;;;;7337527;19;109374;-88
2023/01/18 07:41:32;;;;;;;;;;;-0.90;99.90;;;;;;7343247;19;109182;-88
2023/01/18 07:43:59;;;;;;;;;;;-1.00;99.90;;;;;;7340173;19;108612;-88
2023/01/18 07:46:26;;;;;;;;;;;-0.90;99.90;;;;;;7336821;19;108563;-88
2023/01/18 07:48:53;;;;;;;;;;;-1.00;99.90;;;;;;7339609;19;110434;-88
2023/01/18 07:51:21;;;;;;;;;;;-1.00;99.90;;;;;;7338051;19;110885;-88
2023/01/18 07:53:51;;;;;;;;;;;-0.90;99.90;;;;;;7335917;19;110704;-88
2023/01/18 07:56:18;;;;;;;;;;;-0.90;99.90;;;;;;7336519;19;110681;-88
2023/01/18 07:58:45;;;;;;;;;;;-0.90;99.90;;;;;;7338476;19;109648;-87
2023/01/18 08:01:14;;;;;;;;;;;-0.90;99.90;;;;;;7343383;19;109483;-88
2023/01/18 08:03:42;;;;;;;;;;;-1.00;99.90;;;;;;7334729;19;109997;-88
2023/01/18 08:06:12;;;;;;;;;;;-1.00;99.90;;;;;;7336256;19;111479;-88
2023/01/18 08:08:39;;;;;;;;;;;-1.00;99.90;;;;;;7333019;19;109576;-88
2023/01/18 08:11:06;;;;;;;;;;;-0.90;99.90;;;;;;7334681;19;109163;-87
2023/01/18 08:13:33;;;;;;;;;;;-0.90;99.90;;;;;;7338013;19;110539;-87
2023/01/18 08:16:01;;;;;;;;;;;-0.90;99.90;;;;;;7338266;19;109440;-88
2023/01/18 08:18:29;;;;;;;;;;;-0.90;99.90;;;;;;7333715;19;109744;-88
2023/01/18 08:20:56;;;;;;;;;;;-0.80;99.90;;;;;;7336512;19;111646;-88
2023/01/18 08:23:23;;;;;;;;;;;-0.80;99.90;;;;;;7344975;19;109109;-88
2023/01/18 08:25:50;;;;;;;;;;;-0.80;99.90;;;;;;7337975;19;109041;-89
2023/01/18 08:28:18;;;;;;;;;;;-0.80;99.90;;;;;;7339065;19;109775;-88
2023/01/18 08:30:46;;;;;;;;;;;-0.80;99.90;;;;;;7338679;19;108975;-87
2023/01/18 08:33:13;;;;;;;;;;;-0.80;99.90;;;;;;7337612;19;108853;-88
2023/01/18 08:35:42;;;;;;;;;;;-0.70;99.90;;;;;;7332528;19;111693;-89
2023/01/18 08:38:09;;;;;;;;;;;-0.70;99.90;;;;;;7335719;19;109168;-88
2023/01/18 08:40:36;;;;;;;;;;;-0.70;99.90;;;;;;7333205;19;109703;-89
2023/01/18 08:43:03;;;;;;;;;;;-0.60;99.90;;;;;;7334939;19;110914;-88
2023/01/18 08:45:31;;;;;;;;;;;-0.60;99.90;;;;;;7340344;19;109781;-88
2023/01/18 08:47:59;;;;;;;;;;;-0.50;99.90;;;;;;7333474;19;110254;-87
2023/01/18 08:50:26;;;;;;;;;;;-0.50;99.90;;;;;;7332469;19;109271;-89
2023/01/18 08:52:53;;;;;;;;;;;-0.40;99.90;;;;;;7326873;19;109200;-88
2023/01/18 08:55:21;;;;;;;;;;;-0.40;99.90;;;;;;7335167;19;113338;-88
2023/01/18 08:57:48;;;;;;;;;;;-0.40;99.90;;;;;;7332450;19;108769;-87
2023/01/18 09:00:16;;;;;;;;;;;-0.30;99.90;;;;;;7333729;19;111563;-87
2023/01/18 09:02:43;;;;;;;;;;;-0.20;99.90;;;;;;7334725;19;111491;-88
2023/01/18 09:05:10;;;;;;;;;;;-0.20;99.90;;;;;;7334576;19;108978;-88
2023/01/18 09:07:37;;;;;;;;;;;-0.10;99.90;;;;;;7340908;19;109266;-89
2023/01/18 09:10:04;;;;;;;;;;;-0.10;99.90;;;;;;7336559;19;108902;-87
2023/01/18 09:12:34;;;;;;;;;;;0.00;99.90;;;;;;7337160;19;109466;-88
2023/01/18 09:15:01;;;;;;;;;;;0.10;99.90;;;;;;7336852;19;110438;-90
2023/01/18 09:17:28;;;;;;;;;;;0.20;99.90;;;;;;7324392;19;110783;-89
2023/01/18 09:19:55;;;;;;;;;;;0.20;99.90;;;;;;7329859;19;108739;-90
2023/01/18 09:22:23;;;;;;;;;;;0.30;99.90;;;;;;7330567;19;113260;-89
2023/01/18 09:24:50;;;;;;;;;;;0.30;99.90;;;;;;7335245;19;108608;-91
2023/01/18 09:27:17;;;;;;;;;;;0.40;99.90;;;;;;7336836;19;109172;-90
2023/01/18 09:29:50;;;;;;;;;;;0.50;99.90;;;;;;7343813;19;110370;-89
2023/01/18 09:32:18;;;;;;;;;;;0.60;99.90;;;;;;7338938;19;109856;-89
2023/01/18 09:34:49;;;;;;;;;;;0.60;99.90;;;;;;7337632;19;110386;-94
2023/01/18 09:37:16;;;;;;;;;;;0.70;99.90;;;;;;7347345;19;108641;-95
2023/01/18 09:39:44;;;;;;;;;;;0.70;99.90;;;;;;7349505;19;109180;-93
2023/01/18 09:42:19;;;;;;;;;;;0.80;99.90;;;;;;7345492;19;110507;-93
2023/01/18 09:44:49;;;;;;;;;;;0.90;99.90;;;;;;7339940;19;108296;-93
2023/01/18 09:47:33;;;;;;;;;;;0.90;99.90;;;;;;7338973;19;108475;-93
2023/01/18 09:50:19;;;;;;;;;;;0.90;99.90;;;;;;7340627;19;111042;-94
2023/01/18 09:52:46;;;;;;;;;;;1.00;99.90;;;;;;7354220;19;108206;-95
2023/01/18 09:55:32;;;;;;;;;;;1.00;99.90;;;;;;7340686;19;109968;-94
2023/01/18 09:57:59;;;;;;;;;;;1.10;99.90;;;;;;7335723;19;108889;-90
2023/01/18 10:00:28;;;;;;;;;;;1.10;99.90;;;;;;7335242;19;108776;-90
2023/01/18 10:03:01;;;;;;;;;;;1.20;99.90;;;;;;7337067;19;111014;-91
2023/01/18 10:05:32;;;;;;;;;;;1.30;99.90;;;;;;7334317;19;108350;-90
2023/01/18 10:08:25;;;;;;;;;;;1.40;99.90;;;;;;7339258;19;108934;-90
2023/01/18 10:10:58;;;;;;;;;;;1.40;99.90;;;;;;7335093;19;109663;-91
2023/01/18 10:13:31;;;;;;;;;;;1.50;99.90;;;;;;7340873;19;108905;-89
2023/01/18 10:15:58;;;;;;;;;;;1.60;99.90;;;;;;7340930;19;110749;-90
2023/01/18 10:18:26;;;;;;;;;;;1.70;99.90;;;;;;7337413;19;109448;-90
2023/01/18 10:20:56;;;;;;;;;;;1.80;99.90;;;;;;7337205;19;109653;-91
2023/01/18 10:23:30;;;;;;;;;;;1.90;99.90;;;;;;7338496;19;109072;-90
2023/01/18 10:26:22;;;;;;;;;;;2.00;99.90;;;;;;7337895;19;109920;-91
2023/01/18 10:28:52;;;;;;;;;;;2.10;99.90;;;;;;7340006;19;109716;-91
2023/01/18 10:31:44;;;;;;;;;;;2.20;99.90;;;;;;7335453;19;110313;-91
2023/01/18 10:34:18;;;;;;;;;;;2.30;99.90;;;;;;7339484;19;108629;-90
2023/01/18 10:36:51;;;;;;;;;;;2.40;99.90;;;;;;7343612;19;109263;-92
2023/01/18 10:39:26;;;;;;;;;;;2.50;99.90;;;;;;7342508;19;108700;-92
2023/01/18 10:41:57;;;;;;;;;;;2.50;99.90;;;;;;7349074;19;108777;-92
2023/01/18 10:44:24;;;;;;;;;;;2.60;99.90;;;;;;7349572;19;109006;-91
2023/01/18 10:46:58;;;;;;;;;;;2.70;99.90;;;;;;7365124;19;108776;-94
2023/01/18 10:49:36;;;;;;;;;;;2.80;99.90;;;;;;7367742;19;108124;-91
2023/01/18 10:52:15;;;;;;;;;;;2.90;99.90;;;;;;7351322;19;108770;-87
2023/01/18 10:54:50;;;;;;;;;;;3.00;99.90;;;;;;7348339;19;108705;-87
2023/01/18 10:57:22;;;;;;;;;;;3.00;99.90;;;;;;7354401;19;110811;-85
2023/01/18 10:59:50;;;;;;;;;;;3.10;99.90;;;;;;7361796;19;109384;-87
2023/01/18 11:02:26;;;;;;;;;;;3.20;99.90;;;;;;7350641;19;109467;-88
2023/01/18 11:04:55;;;;;;;;;;;3.30;99.90;;;;;;7353542;19;110233;-88
2023/01/18 11:07:23;;;;;;;;;;;3.40;99.90;;;;;;7354395;19;110957;-86
2023/01/18 11:09:58;;;;;;;;;;;3.50;99.90;;;;;;7355236;19;108319;-88
2023/01/18 11:12:37;;;;;;;;;;;3.60;99.90;;;;;;7353021;19;109417;-88
2023/01/18 11:15:13;;;;;;;;;;;3.70;99.90;;;;;;7354849;19;109110;-87
2023/01/18 11:17:45;;;;;;;;;;;3.80;99.90;;;;;;7347743;19;112322;-88
2023/01/18 11:20:20;;;;;;;;;;;4.00;99.90;;;;;;7338930;19;110239;-88
2023/01/18 11:22:54;;;;;;;;;;;4.10;99.90;;;;;;7336879;19;111190;-87
2023/01/18 11:25:21;;;;;;;;;;;4.10;99.90;;;;;;7334057;19;113453;-87
2023/01/18 11:27:48;;;;;;;;;;;4.20;99.90;;;;;;7335450;19;109738;-89
2023/01/18 11:30:22;;;;;;;;;;;4.30;99.90;;;;;;7338164;19;109441;-87
2023/01/18 11:32:50;;;;;;;;;;;4.40;99.90;;;;;;7336605;19;109452;-87
2023/01/18 11:35:33;;;;;;;;;;;4.50;99.90;;;;;;7337885;19;109916;-87
2023/01/18 11:38:01;;;;;;;;;;;4.60;99.90;;;;;;7335818;19;109791;-86
2023/01/18 11:40:29;;;;;;;;;;;4.60;99.90;;;;;;7336241;19;109760;-87
2023/01/18 11:42:58;;;;;;;;;;;4.70;99.90;;;;;;7340088;19;108790;-87
2023/01/18 11:45:29;;;;;;;;;;;4.80;99.90;;;;;;7341338;19;111822;-85
2023/01/18 11:48:12;;;;;;;;;;;4.80;99.90;;;;;;7335392;19;108921;-87
2023/01/18 11:50:45;;;;;;;;;;;5.00;99.90;;;;;;7334356;19;109677;-88
2023/01/18 11:53:12;;;;;;;;;;;5.00;99.90;;;;;;7330829;19;110136;-88
2023/01/18 11:56:05;;;;;;;;;;;5.10;99.90;;;;;;7330942;19;109005;-87
2023/01/18 11:58:33;;;;;;;;;;;5.20;99.90;;;;;;7333008;19;114985;-88
2023/01/18 12:01:06;;;;;;;;;;;5.20;99.90;;;;;;7334217;19;113505;-87
2023/01/18 12:03:38;;;;;;;;;;;5.30;99.90;;;;;;7334706;19;108642;-88
2023/01/18 12:06:12;;;;;;;;;;;5.40;99.90;;;;;;7342352;19;109353;-84
2023/01/18 12:08:42;;;;;;;;;;;5.60;99.90;;;;;;7337258;19;108879;-89
2023/01/18 12:11:22;;;;;;;;;;;5.60;99.90;;;;;;7338285;19;109151;-91
2023/01/18 12:13:59;;;;;;;;;;;5.70;99.90;;;;;;7338258;19;110149;-89
2023/01/18 12:16:29;;;;;;;;;;;5.70;99.90;;;;;;7337491;19;108975;-89
2023/01/18 12:18:56;;;;;;;;;;;5.80;99.90;;;;;;7339254;19;109410;-89
2023/01/18 12:21:32;;;;;;;;;;;5.80;99.90;;;;;;7336357;19;109197;-87
2023/01/18 12:24:02;;;;;;;;;;;5.80;99.90;;;;;;7340811;19;108713;-87
2023/01/18 12:26:37;;;;;;;;;;;5.90;99.90;;;;;;7337438;19;111885;-89
2023/01/18 12:29:10;;;;;;;;;;;6.00;99.90;;;;;;7340423;19;110800;-89
2023/01/18 12:31:49;;;;;;;;;;;6.10;99.90;;;;;;7337230;19;111467;-88
2023/01/18 12:34:21;;;;;;;;;;;6.10;99.90;;;;;;7337724;19;110402;-88
2023/01/18 12:37:06;;;;;;;;;;;6.20;99.90;;;;;;7339149;19;108820;-88
2023/01/18 12:39:47;;;;;;;;;;;6.10;99.90;;;;;;7336961;19;111040;-87
2023/01/18 12:42:34;;;;;;;;;;;6.20;99.90;;;;;;7337032;19;109402;-88
2023/01/18 12:45:10;;;;;;;;;;;6.20;99.90;;;;;;7335723;19;109617;-88
2023/01/18 12:47:46;;;;;;;;;;;6.30;99.90;;;;;;7339497;19;110166;-87
2023/01/18 12:50:18;;;;;;;;;;;6.30;99.90;;;;;;7337833;19;110442;-88
2023/01/18 12:52:52;;;;;;;;;;;6.40;99.90;;;;;;7341685;19;109699;-88
2023/01/18 12:55:21;;;;;;;;;;;6.50;99.90;;;;;;7333313;19;109701;-88
2023/01/18 12:57:49;;;;;;;;;;;6.60;99.90;;;;;;7332951;19;109277;-87
2023/01/18 13:00:40;;;;;;;;;;;6.60;99.90;;;;;;7333863;19;109779;-89
2023/01/18 13:03:11;;;;;;;;;;;6.70;99.90;;;;;;7331763;19;109983;-89
2023/01/18 13:05:55;;;;;;;;;;;6.80;99.90;;;;;;7328467;19;109187;-89
2023/01/18 13:08:40;;;;;;;;;;;6.80;99.90;;;;;;7337461;19;110112;-89
2023/01/18 13:11:19;;;;;;;;;;;6.70;99.90;;;;;;7335213;19;110574;-88
2023/01/18 13:13:47;;;;;;;;;;;6.70;99.90;;;;;;7338946;19;108996;-88
2023/01/18 13:16:20;;;;;;;;;;;6.70;99.90;;;;;;7343012;19;109397;-88
2023/01/18 13:18:55;;;;;;;;;;;6.80;99.90;;;;;;7339001;19;108802;-89
2023/01/18 13:21:24;;;;;;;;;;;6.80;99.90;;;;;;7334394;19;111919;-90
2023/01/18 13:24:10;;;;;;;;;;;7.00;99.90;;;;;;7337392;19;110259;-88
2023/01/18 13:26:37;;;;;;;;;;;7.00;99.90;;;;;;7335848;19;110722;-88
2023/01/18 13:29:15;;;;;;;;;;;7.00;99.90;;;;;;7340196;19;109097;-87
2023/01/18 13:31:42;;;;;;;;;;;7.10;99.90;;;;;;7338505;19;112436;-88
2023/01/18 13:34:23;;;;;;;;;;;7.20;99.90;;;;;;7336773;19;108872;-88
2023/01/18 13:36:50;;;;;;;;;;;7.20;99.90;;;;;;7336873;19;110165;-88
2023/01/18 13:39:22;;;;;;;;;;;7.10;99.90;;;;;;7339548;19;110519;-87
2023/01/18 13:42:01;;;;;;;;;;;7.10;99.90;;;;;;7337404;19;110400;-89
2023/01/18 13:44:35;;;;;;;;;;;7.20;99.90;;;;;;7332529;19;110608;-89
2023/01/18 13:47:22;;;;;;;;;;;7.30;99.90;;;;;;7335793;19;108346;-89
2023/01/18 13:49:49;;;;;;;;;;;7.30;99.90;;;;;;7334822;19;109535;-88
2023/01/18 13:52:27;;;;;;;;;;;7.40;99.90;;;;;;7335462;19;110158;-89
2023/01/18 13:54:54;;;;;;;;;;;7.40;99.90;;;;;;7336601;19;110067;-88
2023/01/18 13:57:23;;;;;;;;;;;7.40;99.90;;;;;;7334320;19;109408;-88
2023/01/18 13:59:50;;;;;;;;;;;7.50;99.90;;;;;;7335776;19;110402;-88
2023/01/18 14:02:20;;;;;;;;;;;7.50;99.90;;;;;;7339246;19;110423;-89
2023/01/18 14:04:58;;;;;;;;;;;7.60;99.90;;;;;;7335289;19;110269;-87
2023/01/18 14:07:25;;;;;;;;;;;7.60;99.90;;;;;;7334897;19;109242;-88
2023/01/18 14:09:52;;;;;;;;;;;7.50;99.90;;;;;;7335105;19;110715;-89
2023/01/18 14:12:38;;;;;;;;;;;7.60;99.90;;;;;;7333621;19;110179;-89
2023/01/18 14:15:20;;;;;;;;;;;7.50;99.90;;;;;;7333536;19;108999;-89
2023/01/18 14:17:47;;;;;;;;;;;7.50;99.90;;;;;;7335362;19;109581;-89
2023/01/18 14:20:30;;;;;;;;;;;7.50;99.90;;;;;;7333268;19;109248;-88
2023/01/18 14:22:57;;;;;;;;;;;7.50;99.90;;;;;;7339121;19;108446;-88
2023/01/18 14:25:43;;;;;;;;;;;7.60;99.90;;;;;;7334603;19;110642;-88
2023/01/18 14:28:20;;;;;;;;;;;7.50;99.90;;;;;;7335186;19;108409;-88
2023/01/18 14:30:48;;;;;;;;;;;7.60;99.90;;;;;;7335301;19;112057;-88
2023/01/18 14:33:15;;;;;;;;;;;7.50;99.90;;;;;;7333754;19;113603;-89
2023/01/18 14:35:52;;;;;;;;;;;7.50;99.90;;;;;;7332619;19;109402;-88
2023/01/18 14:38:19;;;;;;;;;;;7.60;99.90;;;;;;7331659;19;111498;-88
2023/01/18 14:40:48;;;;;;;;;;;7.60;99.90;;;;;;7333640;19;113560;-88
2023/01/18 14:43:20;;;;;;;;;;;7.60;99.90;;;;;;7333702;19;108958;-89
2023/01/18 14:45:52;;;;;;;;;;;7.60;99.90;;;;;;7336448;19;109017;-89
2023/01/18 14:48:21;;;;;;;;;;;7.60;99.90;;;;;;7330814;19;109794;-89
2023/01/18 14:50:50;;;;;;;;;;;7.60;99.90;;;;;;7334519;19;109343;-89
2023/01/18 14:53:22;;;;;;;;;;;7.60;99.90;;;;;;7333784;19;109575;-89
2023/01/18 14:56:08;;;;;;;;;;;7.60;99.90;;;;;;7330879;19;109072;-88
2023/01/18 14:58:36;;;;;;;;;;;7.60;99.90;;;;;;7331728;19;108574;-87
2023/01/18 15:01:04;;;;;;;;;;;7.60;99.90;;;;;;7333260;19;110479;-88